createdAt,value
2017-04-09T00:00:20.772Z,12.13
2017-04-09T00:01:20.784Z,12.07
2017-04-09T00:02:20.799Z,12.07
2017-04-09T00:03:20.821Z,12.1
2017-04-09T00:04:20.834Z,12
2017-04-09T00:05:20.540Z,12
2017-04-09T00:06:20.565Z,11.91
2017-04-09T00:07:20.673Z,12.06
2017-04-09T00:08:20.591Z,12.02
2017-04-09T00:09:20.813Z,11.9
2017-04-09T00:10:20.633Z,11.97
2017-04-09T00:11:20.955Z,11.97
2017-04-09T00:12:21.033Z,12.02
2017-04-09T00:13:21.004Z,11.91
2017-04-09T00:14:20.697Z,11.91
2017-04-09T00:15:21.030Z,11.91
2017-04-09T00:16:21.169Z,11.94
2017-04-09T00:17:21.250Z,11.97
2017-04-09T00:18:21.154Z,11.88
2017-04-09T00:19:20.566Z,11.84
2017-04-09T00:20:21.207Z,11.8
2017-04-09T00:21:21.218Z,11.73
2017-04-09T00:22:21.221Z,11.83
2017-04-09T00:23:21.256Z,11.83
2017-04-09T00:24:20.940Z,11.87
2017-04-09T00:25:21.201Z,11.83
2017-04-09T00:26:21.220Z,11.84
2017-04-09T00:27:21.253Z,11.78
2017-04-09T00:28:21.310Z,11.77
2017-04-09T00:29:21.273Z,11.73
2017-04-09T00:30:21.282Z,11.78
2017-04-09T00:31:21.298Z,11.72
2017-04-09T00:32:21.314Z,11.66
2017-04-09T00:33:21.337Z,11.8
2017-04-09T00:34:21.356Z,11.72
2017-04-09T00:35:21.367Z,11.68
2017-04-09T00:36:21.384Z,11.6
2017-04-09T00:37:21.408Z,11.65
2017-04-09T00:38:21.419Z,11.72
2017-04-09T00:39:21.439Z,11.73
2017-04-09T00:40:21.447Z,11.7
2017-04-09T00:41:21.467Z,11.65
2017-04-09T00:42:21.486Z,11.7
2017-04-09T00:43:21.496Z,11.68
2017-04-09T00:44:21.520Z,11.62
2017-04-09T00:45:21.539Z,11.68
2017-04-09T00:46:21.554Z,11.63
2017-04-09T00:47:21.565Z,11.62
2017-04-09T00:48:21.630Z,11.62
2017-04-09T00:49:21.620Z,11.63
2017-04-09T00:50:21.620Z,11.63
2017-04-09T00:51:21.636Z,11.54
2017-04-09T00:52:21.652Z,11.51
2017-04-09T00:53:21.676Z,11.51
2017-04-09T00:54:21.688Z,11.48
2017-04-09T00:55:21.713Z,11.51
2017-04-09T00:56:21.727Z,11.54
2017-04-09T00:57:21.737Z,11.41
2017-04-09T00:58:21.761Z,11.55
2017-04-09T00:59:21.464Z,11.45
2017-04-09T01:00:21.788Z,11.52
2017-04-09T01:01:21.495Z,11.47
2017-04-09T01:02:21.824Z,11.47
2017-04-09T01:03:21.531Z,11.5
2017-04-09T01:04:21.859Z,11.43
2017-04-09T01:05:21.562Z,11.47
2017-04-09T01:06:21.892Z,11.37
2017-04-09T01:07:21.908Z,11.44
2017-04-09T01:08:21.932Z,11.44
2017-04-09T01:09:21.629Z,11.36
2017-04-09T01:10:21.963Z,11.35
2017-04-09T01:11:21.980Z,11.36
2017-04-09T01:12:21.991Z,11.33
2017-04-09T01:13:21.703Z,11.36
2017-04-09T01:14:22.028Z,11.4
2017-04-09T01:15:22.039Z,11.33
2017-04-09T01:16:22.059Z,11.36
2017-04-09T01:17:22.074Z,11.29
2017-04-09T01:18:22.112Z,11.29
2017-04-09T01:19:22.125Z,11.29
2017-04-09T01:20:22.124Z,11.29
2017-04-09T01:21:22.141Z,11.27
2017-04-09T01:22:22.163Z,11.33
2017-04-09T01:23:22.177Z,11.25
2017-04-09T01:24:22.190Z,11.19
2017-04-09T01:25:22.207Z,11.25
2017-04-09T01:26:22.230Z,11.23
2017-04-09T01:27:22.238Z,11.26
2017-04-09T01:28:22.258Z,11.25
2017-04-09T01:29:22.274Z,11.14
2017-04-09T01:30:22.383Z,11.18
2017-04-09T01:31:22.313Z,11.14
2017-04-09T01:32:22.328Z,11.17
2017-04-09T01:33:22.341Z,11.19
2017-04-09T01:34:22.358Z,11.11
2017-04-09T01:35:22.378Z,11.11
2017-04-09T01:36:22.388Z,11.22
2017-04-09T01:37:22.409Z,11.08
2017-04-09T01:38:22.144Z,11.07
2017-04-09T01:39:22.487Z,11.14
2017-04-09T01:40:22.462Z,11.12
2017-04-09T01:41:22.477Z,11.07
2017-04-09T01:42:22.494Z,11.04
2017-04-09T01:43:22.629Z,11.05
2017-04-09T01:44:22.636Z,11.07
2017-04-09T01:45:22.635Z,11.05
2017-04-09T01:46:22.566Z,10.97
2017-04-09T01:47:22.575Z,11.04
2017-04-09T01:48:22.714Z,11
2017-04-09T01:49:22.702Z,10.97
2017-04-09T01:50:22.723Z,11
2017-04-09T01:51:22.848Z,11.02
2017-04-09T01:52:22.868Z,10.97
2017-04-09T01:53:22.872Z,10.99
2017-04-09T01:54:22.579Z,10.99
2017-04-09T01:55:22.889Z,10.96
2017-04-09T01:56:22.577Z,10.96
2017-04-09T01:57:22.897Z,10.92
2017-04-09T01:58:22.908Z,10.87
2017-04-09T01:59:22.922Z,10.93
2017-04-09T02:00:22.911Z,10.99
2017-04-09T02:01:22.271Z,10.93
2017-04-09T02:02:23.037Z,10.89
2017-04-09T02:03:23.037Z,10.93
2017-04-09T02:04:23.044Z,10.93
2017-04-09T02:05:23.068Z,10.9
2017-04-09T02:06:23.068Z,10.93
2017-04-09T02:07:23.079Z,10.82
2017-04-09T02:08:23.012Z,10.9
2017-04-09T02:09:23.025Z,10.78
2017-04-09T02:10:23.032Z,10.86
2017-04-09T02:11:22.768Z,10.9
2017-04-09T02:12:23.078Z,10.81
2017-04-09T02:13:23.089Z,10.82
2017-04-09T02:14:23.164Z,10.87
2017-04-09T02:15:23.103Z,10.76
2017-04-09T02:16:23.063Z,10.78
2017-04-09T02:17:23.220Z,10.79
2017-04-09T02:18:22.783Z,10.81
2017-04-09T02:19:23.101Z,10.87
2017-04-09T02:20:23.117Z,10.69
2017-04-09T02:21:23.143Z,10.75
2017-04-09T02:22:23.154Z,10.72
2017-04-09T02:23:23.161Z,10.76
2017-04-09T02:24:23.181Z,10.79
2017-04-09T02:25:23.207Z,10.78
2017-04-09T02:26:23.212Z,10.76
2017-04-09T02:27:23.238Z,10.74
2017-04-09T02:28:23.246Z,10.78
2017-04-09T02:29:23.260Z,10.72
2017-04-09T02:30:23.278Z,10.75
2017-04-09T02:31:23.294Z,10.81
2017-04-09T02:32:23.004Z,10.69
2017-04-09T02:33:23.013Z,10.68
2017-04-09T02:34:23.027Z,10.69
2017-04-09T02:35:23.045Z,10.64
2017-04-09T02:36:23.067Z,10.63
2017-04-09T02:37:23.079Z,10.68
2017-04-09T02:38:23.092Z,10.63
2017-04-09T02:39:23.428Z,10.68
2017-04-09T02:40:23.435Z,10.63
2017-04-09T02:41:23.140Z,10.68
2017-04-09T02:42:23.195Z,10.68
2017-04-09T02:43:23.486Z,10.63
2017-04-09T02:44:23.505Z,10.6
2017-04-09T02:45:23.517Z,10.63
2017-04-09T02:46:23.542Z,10.63
2017-04-09T02:47:23.549Z,10.57
2017-04-09T02:48:23.572Z,10.57
2017-04-09T02:49:23.275Z,10.54
2017-04-09T02:50:23.598Z,10.57
2017-04-09T02:51:23.613Z,10.56
2017-04-09T02:52:23.318Z,10.54
2017-04-09T02:53:23.650Z,10.57
2017-04-09T02:54:23.666Z,10.54
2017-04-09T02:55:23.681Z,10.53
2017-04-09T02:56:23.718Z,10.48
2017-04-09T02:57:23.712Z,10.48
2017-04-09T02:58:23.724Z,10.48
2017-04-09T02:59:23.746Z,10.56
2017-04-09T03:00:23.761Z,10.49
2017-04-09T03:01:23.776Z,10.41
2017-04-09T03:02:23.793Z,10.53
2017-04-09T03:03:23.802Z,10.46
2017-04-09T03:04:23.829Z,10.42
2017-04-09T03:05:23.844Z,10.44
2017-04-09T03:06:23.853Z,10.37
2017-04-09T03:07:23.873Z,10.42
2017-04-09T03:08:23.892Z,10.4
2017-04-09T03:09:23.921Z,10.42
2017-04-09T03:10:23.925Z,10.41
2017-04-09T03:11:23.939Z,10.41
2017-04-09T03:12:23.950Z,10.37
2017-04-09T03:13:23.663Z,10.37
2017-04-09T03:14:23.982Z,10.35
2017-04-09T03:15:24.003Z,10.41
2017-04-09T03:16:24.019Z,10.3
2017-04-09T03:17:24.038Z,10.4
2017-04-09T03:18:24.049Z,10.28
2017-04-09T03:19:24.072Z,10.31
2017-04-09T03:20:24.075Z,10.35
2017-04-09T03:21:24.096Z,10.35
2017-04-09T03:22:24.115Z,10.35
2017-04-09T03:23:24.134Z,10.35
2017-04-09T03:24:24.141Z,10.26
2017-04-09T03:25:24.164Z,10.33
2017-04-09T03:26:24.173Z,10.31
2017-04-09T03:27:24.191Z,10.38
2017-04-09T03:28:24.210Z,10.38
2017-04-09T03:29:24.227Z,10.37
2017-04-09T03:30:24.244Z,10.33
2017-04-09T03:31:24.260Z,10.35
2017-04-09T03:32:23.968Z,10.34
2017-04-09T03:33:24.333Z,10.31
2017-04-09T03:34:24.308Z,10.3
2017-04-09T03:35:24.003Z,10.33
2017-04-09T03:36:24.336Z,10.33
2017-04-09T03:37:24.350Z,10.25
2017-04-09T03:38:24.368Z,10.3
2017-04-09T03:39:24.394Z,10.35
2017-04-09T03:40:24.397Z,10.26
2017-04-09T03:41:24.413Z,10.25
2017-04-09T03:42:24.435Z,10.34
2017-04-09T03:43:24.450Z,10.3
2017-04-09T03:44:24.459Z,10.31
2017-04-09T03:45:24.483Z,10.25
2017-04-09T03:46:24.489Z,10.23
2017-04-09T03:47:24.508Z,10.25
2017-04-09T03:48:24.525Z,10.22
2017-04-09T03:49:24.557Z,10.23
2017-04-09T03:50:24.556Z,10.23
2017-04-09T03:51:24.574Z,10.23
2017-04-09T03:52:24.586Z,10.26
2017-04-09T03:53:24.599Z,10.25
2017-04-09T03:54:24.619Z,10.2
2017-04-09T03:55:24.675Z,10.2
2017-04-09T03:56:24.650Z,10.28
2017-04-09T03:57:24.662Z,10.25
2017-04-09T03:58:24.678Z,10.19
2017-04-09T03:59:24.696Z,10.16
2017-04-09T04:00:24.744Z,10.17
2017-04-09T04:01:24.726Z,10.16
2017-04-09T04:02:24.749Z,10.15
2017-04-09T04:03:24.456Z,10.13
2017-04-09T04:04:24.782Z,10.15
2017-04-09T04:05:24.794Z,10.17
2017-04-09T04:06:24.812Z,10.19
2017-04-09T04:07:24.825Z,10.13
2017-04-09T04:08:24.837Z,10.2
2017-04-09T04:09:24.864Z,10.07
2017-04-09T04:10:24.590Z,10.17
2017-04-09T04:11:24.892Z,10.17
2017-04-09T04:12:24.901Z,10.1
2017-04-09T04:13:24.918Z,10.12
2017-04-09T04:14:24.931Z,10.1
2017-04-09T04:15:24.634Z,10.04
2017-04-09T04:16:24.965Z,10.13
2017-04-09T04:17:25.217Z,10.13
2017-04-09T04:18:25.226Z,10.12
2017-04-09T04:19:25.223Z,10.1
2017-04-09T04:20:25.230Z,10.1
2017-04-09T04:21:25.246Z,10.05
2017-04-09T04:22:25.258Z,10.02
2017-04-09T04:23:25.265Z,10.1
2017-04-09T04:24:25.274Z,10.01
2017-04-09T04:25:25.228Z,10.01
2017-04-09T04:26:24.838Z,10.05
2017-04-09T04:27:25.296Z,10.05
2017-04-09T04:28:25.302Z,10.04
2017-04-09T04:29:25.352Z,10.04
2017-04-09T04:30:25.050Z,10.04
2017-04-09T04:31:25.360Z,9.99
2017-04-09T04:32:25.369Z,9.99
2017-04-09T04:33:25.379Z,9.95
2017-04-09T04:34:25.247Z,9.97
2017-04-09T04:35:25.315Z,10.01
2017-04-09T04:36:25.276Z,10.05
2017-04-09T04:37:25.295Z,9.95
2017-04-09T04:38:25.312Z,9.91
2017-04-09T04:39:25.325Z,9.95
2017-04-09T04:40:25.339Z,9.99
2017-04-09T04:41:25.363Z,9.99
2017-04-09T04:42:25.386Z,9.97
2017-04-09T04:43:25.389Z,9.94
2017-04-09T04:44:25.406Z,9.92
2017-04-09T04:45:25.411Z,9.92
2017-04-09T04:46:25.432Z,9.91
2017-04-09T04:47:25.448Z,9.89
2017-04-09T04:48:25.464Z,9.99
2017-04-09T04:49:25.484Z,9.98
2017-04-09T04:50:25.489Z,9.97
2017-04-09T04:51:25.510Z,10.01
2017-04-09T04:52:25.521Z,9.89
2017-04-09T04:53:25.229Z,9.94
2017-04-09T04:54:25.563Z,9.89
2017-04-09T04:55:25.570Z,9.95
2017-04-09T04:56:25.735Z,9.92
2017-04-09T04:57:25.603Z,9.98
2017-04-09T04:58:25.620Z,9.94
2017-04-09T04:59:25.640Z,10.01
2017-04-09T05:00:25.652Z,9.91
2017-04-09T05:01:25.668Z,9.98
2017-04-09T05:02:25.711Z,9.97
2017-04-09T05:03:25.708Z,9.86
2017-04-09T05:04:25.718Z,9.94
2017-04-09T05:05:25.724Z,9.95
2017-04-09T05:06:25.740Z,9.95
2017-04-09T05:07:25.787Z,9.87
2017-04-09T05:08:25.784Z,9.99
2017-04-09T05:09:25.813Z,9.94
2017-04-09T05:10:25.495Z,9.92
2017-04-09T05:11:25.906Z,9.98
2017-04-09T05:12:25.972Z,9.92
2017-04-09T05:13:25.877Z,9.94
2017-04-09T05:14:25.929Z,9.98
2017-04-09T05:15:25.894Z,9.91
2017-04-09T05:16:25.600Z,9.99
2017-04-09T05:17:25.608Z,9.98
2017-04-09T05:18:25.957Z,9.94
2017-04-09T05:19:25.965Z,9.98
2017-04-09T05:20:25.808Z,9.97
2017-04-09T05:21:25.973Z,9.97
2017-04-09T05:22:25.992Z,10.02
2017-04-09T05:23:26.010Z,10.05
2017-04-09T05:24:26.017Z,10.1
2017-04-09T05:25:26.033Z,10.13
2017-04-09T05:26:26.052Z,10.05
2017-04-09T05:27:26.063Z,10.12
2017-04-09T05:28:26.079Z,10.13
2017-04-09T05:29:26.093Z,10.15
2017-04-09T05:30:26.143Z,10.19
2017-04-09T05:31:26.125Z,10.1
2017-04-09T05:32:25.885Z,10.15
2017-04-09T05:33:26.164Z,10.16
2017-04-09T05:34:26.171Z,10.16
2017-04-09T05:35:26.185Z,10.12
2017-04-09T05:36:26.215Z,10.1
2017-04-09T05:37:26.221Z,10.12
2017-04-09T05:38:26.230Z,10.15
2017-04-09T05:39:26.253Z,10.15
2017-04-09T05:40:26.268Z,10.12
2017-04-09T05:41:25.972Z,10.13
2017-04-09T05:42:26.299Z,10.12
2017-04-09T05:43:26.314Z,10.1
2017-04-09T05:44:26.328Z,10.12
2017-04-09T05:45:26.345Z,10.1
2017-04-09T05:46:26.375Z,10.2
2017-04-09T05:47:26.383Z,10.15
2017-04-09T05:48:26.386Z,10.15
2017-04-09T05:49:26.405Z,10.12
2017-04-09T05:50:26.111Z,10.22
2017-04-09T05:51:26.437Z,10.17
2017-04-09T05:52:26.451Z,10.15
2017-04-09T05:53:26.473Z,10.12
2017-04-09T05:54:26.487Z,10.13
2017-04-09T05:55:26.500Z,10.1
2017-04-09T05:56:26.521Z,10.25
2017-04-09T05:57:26.226Z,10.13
2017-04-09T05:58:26.573Z,10.15
2017-04-09T05:59:26.265Z,10.13
2017-04-09T06:00:26.582Z,10.13
2017-04-09T06:01:26.286Z,10.15
2017-04-09T06:02:26.672Z,10.12
2017-04-09T06:03:26.728Z,10.17
2017-04-09T06:04:26.654Z,10.26
2017-04-09T06:05:26.661Z,10.26
2017-04-09T06:06:26.681Z,10.23
2017-04-09T06:07:26.691Z,10.28
2017-04-09T06:08:26.699Z,10.19
2017-04-09T06:09:26.735Z,10.25
2017-04-09T06:10:26.422Z,10.26
2017-04-09T06:11:26.747Z,10.19
2017-04-09T06:12:26.771Z,10.28
2017-04-09T06:13:26.772Z,10.33
2017-04-09T06:14:26.846Z,10.31
2017-04-09T06:15:26.805Z,10.37
2017-04-09T06:16:26.831Z,10.41
2017-04-09T06:17:26.832Z,10.3
2017-04-09T06:18:26.859Z,10.4
2017-04-09T06:19:26.573Z,10.37
2017-04-09T06:20:26.932Z,10.35
2017-04-09T06:21:26.906Z,10.41
2017-04-09T06:22:26.921Z,10.38
2017-04-09T06:23:26.955Z,10.44
2017-04-09T06:24:26.951Z,10.51
2017-04-09T06:25:27.084Z,10.54
2017-04-09T06:26:26.367Z,10.53
2017-04-09T06:27:27.019Z,10.57
2017-04-09T06:28:27.020Z,10.57
2017-04-09T06:29:27.031Z,10.68
2017-04-09T06:30:27.235Z,10.67
2017-04-09T06:31:27.249Z,10.67
2017-04-09T06:32:27.090Z,10.69
2017-04-09T06:33:27.096Z,10.69
2017-04-09T06:34:27.106Z,10.78
2017-04-09T06:35:27.189Z,10.76
2017-04-09T06:36:27.141Z,10.82
2017-04-09T06:37:27.146Z,10.81
2017-04-09T06:38:27.163Z,10.81
2017-04-09T06:39:27.176Z,10.84
2017-04-09T06:40:27.196Z,10.87
2017-04-09T06:41:27.209Z,10.92
2017-04-09T06:42:27.225Z,10.96
2017-04-09T06:43:27.238Z,10.99
2017-04-09T06:44:27.258Z,10.99
2017-04-09T06:45:26.957Z,10.97
2017-04-09T06:46:26.981Z,11.05
2017-04-09T06:47:27.337Z,11.1
2017-04-09T06:48:27.026Z,11.12
2017-04-09T06:49:27.365Z,11.11
2017-04-09T06:50:27.364Z,11.14
2017-04-09T06:51:27.369Z,11.18
2017-04-09T06:52:27.389Z,11.26
2017-04-09T06:53:27.099Z,11.27
2017-04-09T06:54:27.423Z,11.33
2017-04-09T06:55:27.532Z,11.4
2017-04-09T06:56:27.447Z,11.41
2017-04-09T06:57:27.184Z,11.47
2017-04-09T06:58:27.491Z,11.45
2017-04-09T06:59:27.496Z,11.6
2017-04-09T07:00:27.512Z,11.59
2017-04-09T07:01:27.542Z,11.59
2017-04-09T07:02:27.651Z,11.68
2017-04-09T07:03:27.663Z,11.63
2017-04-09T07:04:27.670Z,11.77
2017-04-09T07:05:27.683Z,11.8
2017-04-09T07:06:27.667Z,11.87
2017-04-09T07:07:27.709Z,11.86
2017-04-09T07:08:27.688Z,11.97
2017-04-09T07:09:27.471Z,12.07
2017-04-09T07:10:27.773Z,12.1
2017-04-09T07:11:27.758Z,12.13
2017-04-09T07:12:27.720Z,12.17
2017-04-09T07:13:27.716Z,12.21
2017-04-09T07:14:27.447Z,12.25
2017-04-09T07:15:27.750Z,12.39
2017-04-09T07:16:27.762Z,12.43
2017-04-09T07:17:27.475Z,12.43
2017-04-09T07:18:27.800Z,12.43
2017-04-09T07:19:27.823Z,12.47
2017-04-09T07:20:27.837Z,12.54
2017-04-09T07:21:27.855Z,12.62
2017-04-09T07:22:27.999Z,12.62
2017-04-09T07:23:27.879Z,12.68
2017-04-09T07:24:27.896Z,12.76
2017-04-09T07:25:28.025Z,12.86
2017-04-09T07:26:28.018Z,12.86
2017-04-09T07:27:27.629Z,13.01
2017-04-09T07:28:28.059Z,13.05
2017-04-09T07:29:28.065Z,13.05
2017-04-09T07:30:28.074Z,13.19
2017-04-09T07:31:28.083Z,13.22
2017-04-09T07:32:28.119Z,13.23
2017-04-09T07:33:27.836Z,13.33
2017-04-09T07:34:27.751Z,13.35
2017-04-09T07:35:27.858Z,13.54
2017-04-09T07:36:28.162Z,13.59
2017-04-09T07:37:28.171Z,13.7
2017-04-09T07:38:28.189Z,13.7
2017-04-09T07:39:27.827Z,13.81
2017-04-09T07:40:28.278Z,13.78
2017-04-09T07:41:28.276Z,13.78
2017-04-09T07:42:28.297Z,13.92
2017-04-09T07:43:27.986Z,13.92
2017-04-09T07:44:28.419Z,13.92
2017-04-09T07:45:28.418Z,14.04
2017-04-09T07:46:28.428Z,14.15
2017-04-09T07:47:28.396Z,14.07
2017-04-09T07:48:28.431Z,14.15
2017-04-09T07:49:28.111Z,14.28
2017-04-09T07:50:28.430Z,14.3
2017-04-09T07:51:28.444Z,14.43
2017-04-09T07:52:28.453Z,14.53
2017-04-09T07:53:28.492Z,14.53
2017-04-09T07:54:28.606Z,14.69
2017-04-09T07:55:28.587Z,14.65
2017-04-09T07:56:28.266Z,14.73
2017-04-09T07:57:28.585Z,14.81
2017-04-09T07:58:28.591Z,14.78
2017-04-09T07:59:28.471Z,14.89
2017-04-09T08:00:28.493Z,14.96
2017-04-09T08:01:28.510Z,15
2017-04-09T08:02:28.528Z,14.99
2017-04-09T08:03:28.547Z,15.07
2017-04-09T08:04:28.562Z,15.09
2017-04-09T08:05:28.594Z,15.19
2017-04-09T08:06:28.591Z,15.24
2017-04-09T08:07:28.619Z,15.18
2017-04-09T08:08:28.627Z,15.27
2017-04-09T08:09:28.645Z,15.37
2017-04-09T08:10:28.662Z,15.46
2017-04-09T08:11:28.680Z,15.54
2017-04-09T08:12:28.705Z,15.52
2017-04-09T08:13:28.723Z,15.64
2017-04-09T08:14:28.737Z,15.68
2017-04-09T08:15:28.753Z,15.64
2017-04-09T08:16:28.772Z,15.73
2017-04-09T08:17:28.782Z,15.82
2017-04-09T08:18:28.801Z,15.84
2017-04-09T08:19:28.929Z,15.95
2017-04-09T08:20:28.937Z,15.94
2017-04-09T08:21:28.547Z,15.98
2017-04-09T08:22:28.969Z,16.04
2017-04-09T08:23:28.955Z,16.1
2017-04-09T08:24:28.600Z,16.16
2017-04-09T08:25:28.617Z,16.23
2017-04-09T08:26:28.979Z,16.2
2017-04-09T08:27:28.986Z,16.42
2017-04-09T08:28:28.992Z,16.47
2017-04-09T08:29:29.002Z,16.46
2017-04-09T08:30:29.135Z,16.53
2017-04-09T08:31:29.073Z,16.6
2017-04-09T08:32:29.079Z,16.6
2017-04-09T08:33:29.206Z,16.69
2017-04-09T08:34:28.903Z,16.76
2017-04-09T08:35:29.249Z,16.76
2017-04-09T08:36:29.225Z,16.84
2017-04-09T08:37:28.784Z,16.79
2017-04-09T08:38:29.411Z,16.9
2017-04-09T08:39:29.397Z,16.96
2017-04-09T08:40:29.096Z,17.02
2017-04-09T08:41:29.423Z,17.06
2017-04-09T08:42:29.424Z,17.04
2017-04-09T08:43:29.563Z,17.14
2017-04-09T08:44:29.128Z,17.14
2017-04-09T08:45:29.446Z,17.23
2017-04-09T08:46:29.551Z,17.24
2017-04-09T08:47:29.532Z,17.36
2017-04-09T08:48:29.227Z,17.34
2017-04-09T08:49:29.558Z,17.52
2017-04-09T08:50:29.561Z,17.45
2017-04-09T08:51:29.570Z,17.57
2017-04-09T08:52:29.264Z,17.54
2017-04-09T08:53:29.519Z,17.71
2017-04-09T08:54:29.567Z,17.72
2017-04-09T08:55:29.601Z,17.64
2017-04-09T08:56:29.541Z,17.78
2017-04-09T08:57:29.233Z,17.83
2017-04-09T08:58:29.587Z,17.89
2017-04-09T08:59:29.601Z,18.03
2017-04-09T09:00:29.627Z,18.04
2017-04-09T09:01:29.607Z,18.11
2017-04-09T09:02:29.824Z,18.1
2017-04-09T09:03:29.634Z,18.2
2017-04-09T09:04:29.656Z,18.29
2017-04-09T09:05:29.674Z,18.43
2017-04-09T09:06:29.401Z,18.49
2017-04-09T09:07:29.400Z,18.5
2017-04-09T09:08:29.739Z,18.63
2017-04-09T09:09:29.870Z,18.58
2017-04-09T09:10:29.869Z,18.7
2017-04-09T09:11:29.880Z,18.8
2017-04-09T09:12:29.907Z,18.81
2017-04-09T09:13:29.918Z,18.88
2017-04-09T09:14:29.930Z,18.92
2017-04-09T09:15:29.947Z,18.96
2017-04-09T09:16:29.935Z,18.98
2017-04-09T09:17:29.949Z,19.04
2017-04-09T09:18:29.712Z,19.04
2017-04-09T09:19:30.009Z,19.07
2017-04-09T09:20:30.022Z,19.24
2017-04-09T09:21:30.033Z,19.16
2017-04-09T09:22:30.010Z,19.31
2017-04-09T09:23:30.147Z,19.29
2017-04-09T09:24:30.148Z,19.31
2017-04-09T09:25:30.168Z,19.33
2017-04-09T09:26:30.182Z,19.3
2017-04-09T09:27:30.203Z,19.34
2017-04-09T09:28:30.224Z,19.47
2017-04-09T09:29:30.381Z,19.56
2017-04-09T09:30:30.294Z,19.56
2017-04-09T09:31:30.297Z,19.56
2017-04-09T09:32:30.306Z,19.59
2017-04-09T09:33:30.446Z,19.64
2017-04-09T09:34:30.455Z,19.73
2017-04-09T09:35:30.466Z,19.81
2017-04-09T09:36:30.465Z,19.88
2017-04-09T09:37:30.484Z,19.96
2017-04-09T09:38:30.463Z,20.04
2017-04-09T09:39:30.451Z,20.16
2017-04-09T09:40:30.446Z,20.28
2017-04-09T09:41:30.477Z,20.26
2017-04-09T09:42:30.484Z,20.32
2017-04-09T09:43:30.481Z,20.4
2017-04-09T09:44:30.496Z,20.32
2017-04-09T09:45:30.164Z,20.47
2017-04-09T09:46:30.501Z,20.52
2017-04-09T09:47:30.519Z,20.52
2017-04-09T09:48:30.540Z,20.6
2017-04-09T09:49:30.557Z,20.66
2017-04-09T09:50:30.574Z,20.72
2017-04-09T09:51:30.597Z,20.75
2017-04-09T09:52:30.308Z,20.75
2017-04-09T09:53:30.383Z,20.82
2017-04-09T09:54:30.669Z,20.95
2017-04-09T09:55:30.685Z,20.92
2017-04-09T09:56:30.704Z,21.03
2017-04-09T09:57:30.413Z,21.18
2017-04-09T09:58:30.749Z,21.22
2017-04-09T09:59:30.899Z,21.29
2017-04-09T10:00:30.789Z,21.37
2017-04-09T10:01:30.807Z,21.43
2017-04-09T10:02:30.829Z,21.32
2017-04-09T10:03:30.537Z,21.46
2017-04-09T10:04:30.880Z,21.6
2017-04-09T10:05:30.896Z,21.64
2017-04-09T10:06:30.915Z,21.69
2017-04-09T10:07:30.939Z,21.7
2017-04-09T10:08:30.962Z,21.79
2017-04-09T10:09:30.979Z,21.85
2017-04-09T10:10:31.005Z,21.85
2017-04-09T10:11:30.714Z,21.93
2017-04-09T10:12:31.051Z,22
2017-04-09T10:13:31.069Z,22.07
2017-04-09T10:14:30.777Z,22.06
2017-04-09T10:15:31.116Z,22.07
2017-04-09T10:16:31.139Z,22.15
2017-04-09T10:17:31.158Z,22.22
2017-04-09T10:18:31.179Z,22.26
2017-04-09T10:19:31.200Z,22.32
2017-04-09T10:20:31.271Z,22.33
2017-04-09T10:21:31.242Z,22.44
2017-04-09T10:22:31.267Z,22.51
2017-04-09T10:23:31.288Z,22.44
2017-04-09T10:24:31.314Z,22.54
2017-04-09T10:25:31.333Z,22.5
2017-04-09T10:26:31.354Z,22.55
2017-04-09T10:27:31.388Z,22.63
2017-04-09T10:28:31.408Z,22.68
2017-04-09T10:29:31.426Z,22.69
2017-04-09T10:30:31.134Z,22.7
2017-04-09T10:31:31.466Z,22.83
2017-04-09T10:32:31.495Z,22.9
2017-04-09T10:33:31.518Z,22.9
2017-04-09T10:34:31.542Z,22.99
2017-04-09T10:35:31.563Z,23
2017-04-09T10:36:31.584Z,22.96
2017-04-09T10:37:31.624Z,23.08
2017-04-09T10:38:31.645Z,23.13
2017-04-09T10:39:31.654Z,23.2
2017-04-09T10:40:31.672Z,23.18
2017-04-09T10:41:31.766Z,23.31
2017-04-09T10:42:31.776Z,23.2
2017-04-09T10:43:31.431Z,23.25
2017-04-09T10:44:31.785Z,23.36
2017-04-09T10:45:31.795Z,23.37
2017-04-09T10:46:31.937Z,23.51
2017-04-09T10:47:31.953Z,23.63
2017-04-09T10:48:31.980Z,23.63
2017-04-09T10:49:31.979Z,23.76
2017-04-09T10:50:32.208Z,23.78
2017-04-09T10:51:32.056Z,23.84
2017-04-09T10:52:32.055Z,23.86
2017-04-09T10:53:32.101Z,23.91
2017-04-09T10:54:32.212Z,23.99
2017-04-09T10:55:32.228Z,24.11
2017-04-09T10:56:32.234Z,24.02
2017-04-09T10:57:32.250Z,24.18
2017-04-09T10:58:32.295Z,24.24
2017-04-09T10:59:32.262Z,24.28
2017-04-09T11:00:32.263Z,24.3
2017-04-09T11:01:32.268Z,24.33
2017-04-09T11:02:32.286Z,24.43
2017-04-09T11:03:32.377Z,24.47
2017-04-09T11:04:32.370Z,24.51
2017-04-09T11:05:32.375Z,24.5
2017-04-09T11:06:32.386Z,24.55
2017-04-09T11:07:32.384Z,24.63
2017-04-09T11:08:32.430Z,24.63
2017-04-09T11:09:32.447Z,24.68
2017-04-09T11:10:32.468Z,24.73
2017-04-09T11:11:32.433Z,24.81
2017-04-09T11:12:32.439Z,24.89
2017-04-09T11:13:32.460Z,24.95
2017-04-09T11:14:32.490Z,25.03
2017-04-09T11:15:32.514Z,24.96
2017-04-09T11:16:32.551Z,25.06
2017-04-09T11:17:32.559Z,25.07
2017-04-09T11:18:32.583Z,25.14
2017-04-09T11:19:32.612Z,25.14
2017-04-09T11:20:32.737Z,25.14
2017-04-09T11:21:32.767Z,25.23
2017-04-09T11:22:32.771Z,25.26
2017-04-09T11:23:32.786Z,25.29
2017-04-09T11:24:32.789Z,25.38
2017-04-09T11:25:32.800Z,25.47
2017-04-09T11:26:32.795Z,25.48
2017-04-09T11:27:32.870Z,25.46
2017-04-09T11:28:32.866Z,25.55
2017-04-09T11:29:32.869Z,25.54
2017-04-09T11:30:33.001Z,25.59
2017-04-09T11:31:33.007Z,25.55
2017-04-09T11:32:33.029Z,25.7
2017-04-09T11:33:33.049Z,25.72
2017-04-09T11:34:33.078Z,25.72
2017-04-09T11:35:33.152Z,25.8
2017-04-09T11:36:33.159Z,25.77
2017-04-09T11:37:33.162Z,25.83
2017-04-09T11:38:33.174Z,25.87
2017-04-09T11:39:33.314Z,25.88
2017-04-09T11:40:33.325Z,25.96
2017-04-09T11:41:33.350Z,25.96
2017-04-09T11:42:33.355Z,26.05
2017-04-09T11:43:33.369Z,26.03
2017-04-09T11:44:33.387Z,26.15
2017-04-09T11:45:33.359Z,26.09
2017-04-09T11:46:33.338Z,26.03
2017-04-09T11:47:33.351Z,26.1
2017-04-09T11:48:33.373Z,26.21
2017-04-09T11:49:33.368Z,26.16
2017-04-09T11:50:33.391Z,26.19
2017-04-09T11:51:33.441Z,26.21
2017-04-09T11:52:33.439Z,26.21
2017-04-09T11:53:33.474Z,26.26
2017-04-09T11:54:33.491Z,26.28
2017-04-09T11:55:33.522Z,26.34
2017-04-09T11:56:33.547Z,26.34
2017-04-09T11:57:33.261Z,26.36
2017-04-09T11:58:33.599Z,26.45
2017-04-09T11:59:33.732Z,26.51
2017-04-09T12:00:33.735Z,26.51
2017-04-09T12:01:33.770Z,26.56
2017-04-09T12:02:33.806Z,26.63
2017-04-09T12:03:33.821Z,26.59
2017-04-09T12:04:33.859Z,26.6
2017-04-09T12:05:33.848Z,26.75
2017-04-09T12:06:33.854Z,26.81
2017-04-09T12:07:33.873Z,26.83
2017-04-09T12:08:33.993Z,26.74
2017-04-09T12:09:33.990Z,26.83
2017-04-09T12:10:34.036Z,26.88
2017-04-09T12:11:34.038Z,26.93
2017-04-09T12:12:33.876Z,26.9
2017-04-09T12:13:33.887Z,26.96
2017-04-09T12:14:33.902Z,26.89
2017-04-09T12:15:33.932Z,26.96
2017-04-09T12:16:33.976Z,27.03
2017-04-09T12:17:34.263Z,27
2017-04-09T12:18:34.266Z,27
2017-04-09T12:19:33.962Z,27.11
2017-04-09T12:20:34.342Z,27.11
2017-04-09T12:21:33.993Z,27.18
2017-04-09T12:22:34.302Z,27.2
2017-04-09T12:23:34.338Z,27.2
2017-04-09T12:24:34.071Z,27.29
2017-04-09T12:25:34.407Z,27.26
2017-04-09T12:26:34.387Z,27.35
2017-04-09T12:27:34.457Z,27.29
2017-04-09T12:28:34.397Z,27.39
2017-04-09T12:29:33.786Z,27.39
2017-04-09T12:30:34.441Z,27.36
2017-04-09T12:31:34.469Z,27.51
2017-04-09T12:32:34.240Z,27.51
2017-04-09T12:33:34.209Z,27.51
2017-04-09T12:34:34.238Z,27.58
2017-04-09T12:35:34.270Z,27.58
2017-04-09T12:36:34.610Z,27.6
2017-04-09T12:37:34.635Z,27.67
2017-04-09T12:38:34.661Z,27.7
2017-04-09T12:39:34.701Z,27.73
2017-04-09T12:40:49.303Z,27.74
2017-04-09T12:41:34.740Z,27.78
2017-04-09T12:42:34.773Z,27.86
2017-04-09T12:43:34.802Z,27.92
2017-04-09T12:44:34.826Z,27.92
2017-04-09T12:45:34.851Z,27.89
2017-04-09T12:46:34.928Z,27.9
2017-04-09T12:47:34.905Z,27.98
2017-04-09T12:48:34.933Z,28.07
2017-04-09T12:49:34.962Z,28.04
2017-04-09T12:50:34.989Z,28.01
2017-04-09T12:51:34.387Z,28
2017-04-09T12:52:34.727Z,28.08
2017-04-09T12:53:35.077Z,28.11
2017-04-09T12:54:34.783Z,28.22
2017-04-09T12:55:34.810Z,28.11
2017-04-09T12:56:34.840Z,28.2
2017-04-09T12:57:35.175Z,28.23